sensor_id;sensor_type;location;lat;lon;timestamp;P1;durP1;ratioP1;P2;durP2;ratioP2
25553;SDS011;13446;50.926;5.332;2024-03-29T00:02:03;3.72;;;0.90;;
25553;SDS011;13446;50.926;5.332;2024-03-29T00:04:29;5.03;;;0.80;;
25553;SDS011;13446;50.926;5.332;2024-03-29T00:06:55;3.97;;;1.10;;
25553;SDS011;13446;50.926;5.332;2024-03-29T00:09:20;4.32;;;0.88;;
25553;SDS011;13446;50.926;5.332;2024-03-29T00:11:46;3.47;;;0.75;;
25553;SDS011;13446;50.926;5.332;2024-03-29T00:14:12;4.72;;;0.55;;
25553;SDS011;13446;50.926;5.332;2024-03-29T00:16:38;8.25;;;0.80;;
25553;SDS011;13446;50.926;5.332;2024-03-29T00:19:04;4.22;;;0.55;;
25553;SDS011;13446;50.926;5.332;2024-03-29T00:21:30;3.10;;;0.85;;
25553;SDS011;13446;50.926;5.332;2024-03-29T00:23:56;3.90;;;0.50;;
25553;SDS011;13446;50.926;5.332;2024-03-29T00:26:22;3.30;;;0.82;;
25553;SDS011;13446;50.926;5.332;2024-03-29T00:28:47;3.33;;;0.77;;
25553;SDS011;13446;50.926;5.332;2024-03-29T00:31:13;4.45;;;0.70;;
25553;SDS011;13446;50.926;5.332;2024-03-29T00:33:38;2.90;;;0.68;;
25553;SDS011;13446;50.926;5.332;2024-03-29T00:36:04;5.40;;;0.70;;
25553;SDS011;13446;50.926;5.332;2024-03-29T00:38:30;2.40;;;0.90;;
25553;SDS011;13446;50.926;5.332;2024-03-29T00:40:55;4.60;;;0.75;;
25553;SDS011;13446;50.926;5.332;2024-03-29T00:43:21;4.35;;;0.65;;
25553;SDS011;13446;50.926;5.332;2024-03-29T00:45:47;4.53;;;1.08;;
25553;SDS011;13446;50.926;5.332;2024-03-29T00:48:13;4.50;;;1.13;;
25553;SDS011;13446;50.926;5.332;2024-03-29T00:50:40;5.35;;;0.68;;
25553;SDS011;13446;50.926;5.332;2024-03-29T00:53:06;3.22;;;0.70;;
25553;SDS011;13446;50.926;5.332;2024-03-29T00:55:33;2.50;;;0.60;;
25553;SDS011;13446;50.926;5.332;2024-03-29T00:57:58;1.98;;;0.70;;
25553;SDS011;13446;50.926;5.332;2024-03-29T01:00:24;4.57;;;0.90;;
25553;SDS011;13446;50.926;5.332;2024-03-29T01:02:49;4.30;;;0.90;;
25553;SDS011;13446;50.926;5.332;2024-03-29T01:05:15;3.50;;;0.70;;
25553;SDS011;13446;50.926;5.332;2024-03-29T01:07:41;6.10;;;0.80;;
25553;SDS011;13446;50.926;5.332;2024-03-29T01:10:07;4.72;;;1.05;;
25553;SDS011;13446;50.926;5.332;2024-03-29T01:12:36;2.17;;;0.57;;
25553;SDS011;13446;50.926;5.332;2024-03-29T01:15:03;2.10;;;0.70;;
25553;SDS011;13446;50.926;5.332;2024-03-29T01:17:29;2.13;;;0.55;;
25553;SDS011;13446;50.926;5.332;2024-03-29T01:19:55;5.22;;;0.80;;
25553;SDS011;13446;50.926;5.332;2024-03-29T01:22:21;2.45;;;0.40;;
25553;SDS011;13446;50.926;5.332;2024-03-29T01:24:46;3.72;;;0.82;;
25553;SDS011;13446;50.926;5.332;2024-03-29T01:27:12;1.65;;;0.38;;
25553;SDS011;13446;50.926;5.332;2024-03-29T01:29:38;1.70;;;0.73;;
25553;SDS011;13446;50.926;5.332;2024-03-29T01:32:03;1.90;;;0.63;;
25553;SDS011;13446;50.926;5.332;2024-03-29T01:34:30;4.07;;;0.65;;
25553;SDS011;13446;50.926;5.332;2024-03-29T01:36:55;4.53;;;0.68;;
25553;SDS011;13446;50.926;5.332;2024-03-29T01:39:21;2.78;;;0.50;;
25553;SDS011;13446;50.926;5.332;2024-03-29T01:44:17;2.67;;;0.43;;
25553;SDS011;13446;50.926;5.332;2024-03-29T01:46:43;2.58;;;0.57;;
25553;SDS011;13446;50.926;5.332;2024-03-29T01:49:10;5.70;;;1.02;;
25553;SDS011;13446;50.926;5.332;2024-03-29T01:51:37;3.15;;;0.57;;
25553;SDS011;13446;50.926;5.332;2024-03-29T01:54:04;2.35;;;0.60;;
25553;SDS011;13446;50.926;5.332;2024-03-29T01:56:31;4.95;;;0.70;;
25553;SDS011;13446;50.926;5.332;2024-03-29T01:58:57;1.83;;;0.50;;
25553;SDS011;13446;50.926;5.332;2024-03-29T02:01:24;3.63;;;0.60;;
25553;SDS011;13446;50.926;5.332;2024-03-29T02:03:52;3.55;;;0.60;;
25553;SDS011;13446;50.926;5.332;2024-03-29T02:06:19;1.15;;;0.50;;
25553;SDS011;13446;50.926;5.332;2024-03-29T02:08:44;2.22;;;0.40;;
25553;SDS011;13446;50.926;5.332;2024-03-29T02:11:11;3.67;;;0.70;;
25553;SDS011;13446;50.926;5.332;2024-03-29T02:13:37;1.35;;;0.50;;
25553;SDS011;13446;50.926;5.332;2024-03-29T02:16:05;1.88;;;0.60;;
25553;SDS011;13446;50.926;5.332;2024-03-29T02:18:31;1.08;;;0.50;;
25553;SDS011;13446;50.926;5.332;2024-03-29T02:20:56;1.52;;;0.65;;
25553;SDS011;13446;50.926;5.332;2024-03-29T02:23:32;3.92;;;0.40;;
25553;SDS011;13446;50.926;5.332;2024-03-29T02:26:00;6.63;;;0.70;;
25553;SDS011;13446;50.926;5.332;2024-03-29T02:28:25;2.65;;;0.35;;
25553;SDS011;13446;50.926;5.332;2024-03-29T02:30:51;1.98;;;0.38;;
25553;SDS011;13446;50.926;5.332;2024-03-29T02:33:17;4.30;;;0.60;;
25553;SDS011;13446;50.926;5.332;2024-03-29T02:35:43;4.30;;;0.50;;
25553;SDS011;13446;50.926;5.332;2024-03-29T02:38:09;1.25;;;0.40;;
25553;SDS011;13446;50.926;5.332;2024-03-29T02:40:34;1.63;;;0.70;;
25553;SDS011;13446;50.926;5.332;2024-03-29T02:43:00;2.65;;;0.40;;
25553;SDS011;13446;50.926;5.332;2024-03-29T02:45:26;2.35;;;0.50;;
25553;SDS011;13446;50.926;5.332;2024-03-29T02:47:51;3.08;;;0.68;;
25553;SDS011;13446;50.926;5.332;2024-03-29T02:50:17;5.47;;;0.60;;
25553;SDS011;13446;50.926;5.332;2024-03-29T02:52:43;2.85;;;0.50;;
25553;SDS011;13446;50.926;5.332;2024-03-29T02:55:08;4.30;;;0.73;;
25553;SDS011;13446;50.926;5.332;2024-03-29T02:57:36;2.42;;;0.60;;
25553;SDS011;13446;50.926;5.332;2024-03-29T03:00:03;3.17;;;0.75;;
25553;SDS011;13446;50.926;5.332;2024-03-29T03:02:29;3.15;;;0.60;;
25553;SDS011;13446;50.926;5.332;2024-03-29T03:04:55;2.05;;;0.68;;
25553;SDS011;13446;50.926;5.332;2024-03-29T03:07:21;2.70;;;0.70;;
25553;SDS011;13446;50.926;5.332;2024-03-29T03:10:05;2.78;;;0.60;;
25553;SDS011;13446;50.926;5.332;2024-03-29T03:12:54;3.50;;;0.75;;
25553;SDS011;13446;50.926;5.332;2024-03-29T03:15:19;5.22;;;0.90;;
25553;SDS011;13446;50.926;5.332;2024-03-29T03:17:45;2.97;;;0.85;;
25553;SDS011;13446;50.926;5.332;2024-03-29T03:20:11;3.13;;;0.80;;
25553;SDS011;13446;50.926;5.332;2024-03-29T03:22:38;6.22;;;0.75;;
25553;SDS011;13446;50.926;5.332;2024-03-29T03:25:04;2.65;;;0.60;;
25553;SDS011;13446;50.926;5.332;2024-03-29T03:27:30;2.95;;;0.57;;
25553;SDS011;13446;50.926;5.332;2024-03-29T03:29:57;4.28;;;0.70;;
25553;SDS011;13446;50.926;5.332;2024-03-29T03:32:23;3.25;;;0.50;;
25553;SDS011;13446;50.926;5.332;2024-03-29T03:34:48;4.25;;;0.77;;
25553;SDS011;13446;50.926;5.332;2024-03-29T03:37:14;2.40;;;0.70;;
25553;SDS011;13446;50.926;5.332;2024-03-29T03:39:43;4.43;;;0.85;;
25553;SDS011;13446;50.926;5.332;2024-03-29T03:42:09;2.83;;;0.95;;
25553;SDS011;13446;50.926;5.332;2024-03-29T03:44:35;1.10;;;0.60;;
25553;SDS011;13446;50.926;5.332;2024-03-29T03:47:21;3.00;;;0.80;;
25553;SDS011;13446;50.926;5.332;2024-03-29T03:49:47;6.47;;;1.00;;
25553;SDS011;13446;50.926;5.332;2024-03-29T03:52:13;3.33;;;0.85;;
25553;SDS011;13446;50.926;5.332;2024-03-29T03:54:38;3.20;;;0.70;;
25553;SDS011;13446;50.926;5.332;2024-03-29T03:57:04;5.07;;;0.88;;
25553;SDS011;13446;50.926;5.332;2024-03-29T03:59:30;2.97;;;0.80;;
25553;SDS011;13446;50.926;5.332;2024-03-29T04:02:05;4.43;;;0.70;;
25553;SDS011;13446;50.926;5.332;2024-03-29T04:04:31;3.25;;;0.80;;
25553;SDS011;13446;50.926;5.332;2024-03-29T04:12:51;3.13;;;0.68;;
25553;SDS011;13446;50.926;5.332;2024-03-29T04:15:24;1.80;;;0.65;;
25553;SDS011;13446;50.926;5.332;2024-03-29T04:17:56;3.35;;;0.70;;
25553;SDS011;13446;50.926;5.332;2024-03-29T04:20:24;3.10;;;0.63;;
25553;SDS011;13446;50.926;5.332;2024-03-29T04:22:50;2.58;;;0.70;;
25553;SDS011;13446;50.926;5.332;2024-03-29T04:25:15;4.25;;;0.70;;
25553;SDS011;13446;50.926;5.332;2024-03-29T04:27:42;3.60;;;0.80;;
25553;SDS011;13446;50.926;5.332;2024-03-29T04:30:07;4.45;;;1.25;;
25553;SDS011;13446;50.926;5.332;2024-03-29T04:32:33;7.18;;;0.80;;
25553;SDS011;13446;50.926;5.332;2024-03-29T04:34:59;5.43;;;0.93;;
25553;SDS011;13446;50.926;5.332;2024-03-29T04:37:25;3.85;;;0.88;;
25553;SDS011;13446;50.926;5.332;2024-03-29T04:39:51;2.40;;;0.68;;
25553;SDS011;13446;50.926;5.332;2024-03-29T04:42:18;1.77;;;0.60;;
25553;SDS011;13446;50.926;5.332;2024-03-29T04:44:43;5.00;;;0.82;;
25553;SDS011;13446;50.926;5.332;2024-03-29T04:47:09;5.75;;;1.00;;
25553;SDS011;13446;50.926;5.332;2024-03-29T04:49:35;4.25;;;0.90;;
25553;SDS011;13446;50.926;5.332;2024-03-29T04:52:04;1.98;;;0.85;;
25553;SDS011;13446;50.926;5.332;2024-03-29T04:54:30;2.85;;;0.70;;
25553;SDS011;13446;50.926;5.332;2024-03-29T04:56:59;3.80;;;0.80;;
25553;SDS011;13446;50.926;5.332;2024-03-29T04:59:31;3.63;;;0.80;;
25553;SDS011;13446;50.926;5.332;2024-03-29T05:01:58;2.22;;;0.60;;
25553;SDS011;13446;50.926;5.332;2024-03-29T05:04:24;5.60;;;1.00;;
25553;SDS011;13446;50.926;5.332;2024-03-29T05:06:51;5.57;;;0.80;;
25553;SDS011;13446;50.926;5.332;2024-03-29T05:09:17;3.45;;;0.80;;
25553;SDS011;13446;50.926;5.332;2024-03-29T05:11:43;3.42;;;1.10;;
25553;SDS011;13446;50.926;5.332;2024-03-29T05:14:09;2.22;;;0.60;;
25553;SDS011;13446;50.926;5.332;2024-03-29T05:16:35;5.05;;;0.90;;
25553;SDS011;13446;50.926;5.332;2024-03-29T05:19:01;2.67;;;0.75;;
25553;SDS011;13446;50.926;5.332;2024-03-29T05:21:26;2.28;;;0.60;;
25553;SDS011;13446;50.926;5.332;2024-03-29T05:23:52;4.18;;;0.98;;
25553;SDS011;13446;50.926;5.332;2024-03-29T05:26:18;2.60;;;0.82;;
25553;SDS011;13446;50.926;5.332;2024-03-29T05:28:44;3.83;;;1.20;;
25553;SDS011;13446;50.926;5.332;2024-03-29T05:31:13;3.63;;;1.10;;
25553;SDS011;13446;50.926;5.332;2024-03-29T05:33:40;3.30;;;0.82;;
25553;SDS011;13446;50.926;5.332;2024-03-29T05:36:06;3.45;;;1.00;;
25553;SDS011;13446;50.926;5.332;2024-03-29T05:38:33;4.50;;;1.20;;
25553;SDS011;13446;50.926;5.332;2024-03-29T05:40:59;4.95;;;0.98;;
25553;SDS011;13446;50.926;5.332;2024-03-29T05:43:25;4.97;;;1.05;;
25553;SDS011;13446;50.926;5.332;2024-03-29T05:45:53;4.53;;;0.93;;
25553;SDS011;13446;50.926;5.332;2024-03-29T05:48:19;3.65;;;1.08;;
25553;SDS011;13446;50.926;5.332;2024-03-29T05:50:45;2.72;;;1.08;;
25553;SDS011;13446;50.926;5.332;2024-03-29T05:53:11;5.97;;;1.08;;
25553;SDS011;13446;50.926;5.332;2024-03-29T05:55:37;4.82;;;1.15;;
25553;SDS011;13446;50.926;5.332;2024-03-29T05:58:02;1.88;;;0.85;;
25553;SDS011;13446;50.926;5.332;2024-03-29T06:00:31;2.95;;;1.20;;
25553;SDS011;13446;50.926;5.332;2024-03-29T06:03:01;3.67;;;1.27;;
25553;SDS011;13446;50.926;5.332;2024-03-29T06:05:28;1.90;;;0.80;;
25553;SDS011;13446;50.926;5.332;2024-03-29T06:07:54;2.83;;;1.02;;
25553;SDS011;13446;50.926;5.332;2024-03-29T06:10:20;2.15;;;0.80;;
25553;SDS011;13446;50.926;5.332;2024-03-29T06:12:45;4.22;;;1.30;;
25553;SDS011;13446;50.926;5.332;2024-03-29T06:15:11;5.07;;;1.30;;
25553;SDS011;13446;50.926;5.332;2024-03-29T06:17:55;3.58;;;1.40;;
25553;SDS011;13446;50.926;5.332;2024-03-29T06:20:22;2.95;;;1.30;;
25553;SDS011;13446;50.926;5.332;2024-03-29T06:22:48;5.35;;;1.30;;
25553;SDS011;13446;50.926;5.332;2024-03-29T06:25:14;7.43;;;1.50;;
25553;SDS011;13446;50.926;5.332;2024-03-29T06:27:40;5.82;;;1.52;;
25553;SDS011;13446;50.926;5.332;2024-03-29T06:30:08;3.08;;;1.50;;
25553;SDS011;13446;50.926;5.332;2024-03-29T06:32:34;4.63;;;1.48;;
25553;SDS011;13446;50.926;5.332;2024-03-29T06:35:01;2.97;;;1.15;;
25553;SDS011;13446;50.926;5.332;2024-03-29T06:37:43;3.50;;;1.10;;
25553;SDS011;13446;50.926;5.332;2024-03-29T06:40:08;3.03;;;1.10;;
25553;SDS011;13446;50.926;5.332;2024-03-29T06:42:41;1.95;;;1.23;;
25553;SDS011;13446;50.926;5.332;2024-03-29T06:45:16;3.60;;;1.17;;
25553;SDS011;13446;50.926;5.332;2024-03-29T06:47:54;5.07;;;1.20;;
25553;SDS011;13446;50.926;5.332;2024-03-29T06:50:32;2.78;;;1.10;;
25553;SDS011;13446;50.926;5.332;2024-03-29T06:52:57;4.32;;;1.38;;
25553;SDS011;13446;50.926;5.332;2024-03-29T06:55:23;5.22;;;1.20;;
25553;SDS011;13446;50.926;5.332;2024-03-29T06:57:49;3.47;;;1.02;;
25553;SDS011;13446;50.926;5.332;2024-03-29T07:00:14;4.40;;;1.10;;
25553;SDS011;13446;50.926;5.332;2024-03-29T07:02:40;4.03;;;1.10;;
25553;SDS011;13446;50.926;5.332;2024-03-29T07:05:06;3.38;;;1.30;;
25553;SDS011;13446;50.926;5.332;2024-03-29T07:07:33;3.30;;;1.13;;
25553;SDS011;13446;50.926;5.332;2024-03-29T07:09:59;3.25;;;1.33;;
25553;SDS011;13446;50.926;5.332;2024-03-29T07:12:24;2.80;;;1.02;;
25553;SDS011;13446;50.926;5.332;2024-03-29T07:14:51;2.08;;;1.20;;
25553;SDS011;13446;50.926;5.332;2024-03-29T07:17:18;5.05;;;1.40;;
25553;SDS011;13446;50.926;5.332;2024-03-29T07:19:44;3.50;;;1.45;;
25553;SDS011;13446;50.926;5.332;2024-03-29T07:22:10;6.63;;;1.55;;
25553;SDS011;13446;50.926;5.332;2024-03-29T07:24:35;4.57;;;1.50;;
25553;SDS011;13446;50.926;5.332;2024-03-29T07:27:02;7.57;;;1.55;;
25553;SDS011;13446;50.926;5.332;2024-03-29T07:29:27;2.33;;;1.45;;
25553;SDS011;13446;50.926;5.332;2024-03-29T07:31:53;5.55;;;1.42;;
25553;SDS011;13446;50.926;5.332;2024-03-29T07:37:16;4.10;;;1.30;;
25553;SDS011;13446;50.926;5.332;2024-03-29T07:39:46;4.03;;;1.60;;
25553;SDS011;13446;50.926;5.332;2024-03-29T07:45:36;4.35;;;1.50;;
25553;SDS011;13446;50.926;5.332;2024-03-29T07:51:18;4.63;;;1.30;;
25553;SDS011;13446;50.926;5.332;2024-03-29T07:53:44;8.85;;;1.50;;
25553;SDS011;13446;50.926;5.332;2024-03-29T07:56:10;3.63;;;1.35;;
25553;SDS011;13446;50.926;5.332;2024-03-29T07:58:35;2.45;;;1.30;;
25553;SDS011;13446;50.926;5.332;2024-03-29T08:01:01;3.05;;;1.48;;
25553;SDS011;13446;50.926;5.332;2024-03-29T08:03:27;3.97;;;1.60;;
25553;SDS011;13446;50.926;5.332;2024-03-29T08:05:56;6.80;;;1.70;;
25553;SDS011;13446;50.926;5.332;2024-03-29T08:08:23;5.90;;;1.40;;
25553;SDS011;13446;50.926;5.332;2024-03-29T08:10:50;5.80;;;1.50;;
25553;SDS011;13446;50.926;5.332;2024-03-29T08:13:16;1.83;;;1.15;;
25553;SDS011;13446;50.926;5.332;2024-03-29T08:15:48;2.03;;;1.00;;
25553;SDS011;13446;50.926;5.332;2024-03-29T08:18:13;2.25;;;1.30;;
25553;SDS011;13446;50.926;5.332;2024-03-29T08:20:39;2.53;;;1.13;;
25553;SDS011;13446;50.926;5.332;2024-03-29T08:23:05;4.22;;;1.33;;
25553;SDS011;13446;50.926;5.332;2024-03-29T08:25:31;2.40;;;1.10;;
25553;SDS011;13446;50.926;5.332;2024-03-29T08:27:56;6.55;;;1.40;;
25553;SDS011;13446;50.926;5.332;2024-03-29T08:30:25;2.33;;;1.40;;
25553;SDS011;13446;50.926;5.332;2024-03-29T08:32:51;4.93;;;1.40;;
25553;SDS011;13446;50.926;5.332;2024-03-29T08:35:20;5.22;;;1.33;;
25553;SDS011;13446;50.926;5.332;2024-03-29T08:37:45;3.55;;;1.20;;
25553;SDS011;13446;50.926;5.332;2024-03-29T08:40:11;1.80;;;0.85;;
25553;SDS011;13446;50.926;5.332;2024-03-29T08:42:37;3.58;;;1.00;;
25553;SDS011;13446;50.926;5.332;2024-03-29T08:45:04;3.35;;;1.00;;
25553;SDS011;13446;50.926;5.332;2024-03-29T08:47:32;2.00;;;1.02;;
25553;SDS011;13446;50.926;5.332;2024-03-29T08:49:58;1.02;;;0.90;;
25553;SDS011;13446;50.926;5.332;2024-03-29T08:52:24;5.18;;;0.90;;
25553;SDS011;13446;50.926;5.332;2024-03-29T08:54:50;1.63;;;0.95;;
25553;SDS011;13446;50.926;5.332;2024-03-29T08:57:15;4.82;;;1.00;;
25553;SDS011;13446;50.926;5.332;2024-03-29T08:59:42;3.28;;;1.10;;
25553;SDS011;13446;50.926;5.332;2024-03-29T09:02:09;2.83;;;1.02;;
25553;SDS011;13446;50.926;5.332;2024-03-29T09:04:35;1.55;;;0.90;;
25553;SDS011;13446;50.926;5.332;2024-03-29T09:07:11;2.10;;;1.15;;
25553;SDS011;13446;50.926;5.332;2024-03-29T09:09:36;3.58;;;1.08;;
25553;SDS011;13446;50.926;5.332;2024-03-29T09:12:06;1.45;;;1.02;;
25553;SDS011;13446;50.926;5.332;2024-03-29T09:14:32;2.33;;;1.00;;
25553;SDS011;13446;50.926;5.332;2024-03-29T09:16:58;2.05;;;0.80;;
25553;SDS011;13446;50.926;5.332;2024-03-29T09:19:24;2.50;;;0.95;;
25553;SDS011;13446;50.926;5.332;2024-03-29T09:21:50;3.65;;;1.30;;
25553;SDS011;13446;50.926;5.332;2024-03-29T09:24:16;3.60;;;1.08;;
25553;SDS011;13446;50.926;5.332;2024-03-29T09:26:48;2.47;;;0.95;;
25553;SDS011;13446;50.926;5.332;2024-03-29T09:29:14;1.42;;;0.90;;
25553;SDS011;13446;50.926;5.332;2024-03-29T09:31:41;6.93;;;1.27;;
25553;SDS011;13446;50.926;5.332;2024-03-29T09:34:06;2.33;;;0.85;;
25553;SDS011;13446;50.926;5.332;2024-03-29T09:36:34;1.85;;;0.88;;
25553;SDS011;13446;50.926;5.332;2024-03-29T09:39:00;3.20;;;0.80;;
25553;SDS011;13446;50.926;5.332;2024-03-29T09:41:25;3.30;;;1.00;;
25553;SDS011;13446;50.926;5.332;2024-03-29T09:43:53;2.80;;;0.82;;
25553;SDS011;13446;50.926;5.332;2024-03-29T09:46:23;4.82;;;0.93;;
25553;SDS011;13446;50.926;5.332;2024-03-29T09:48:50;2.60;;;1.23;;
25553;SDS011;13446;50.926;5.332;2024-03-29T09:51:18;2.03;;;0.98;;
25553;SDS011;13446;50.926;5.332;2024-03-29T09:53:46;4.35;;;0.73;;
25553;SDS011;13446;50.926;5.332;2024-03-29T09:56:12;2.35;;;0.88;;
25553;SDS011;13446;50.926;5.332;2024-03-29T09:58:38;4.30;;;1.05;;
25553;SDS011;13446;50.926;5.332;2024-03-29T10:01:04;2.65;;;0.80;;
25553;SDS011;13446;50.926;5.332;2024-03-29T10:03:31;1.85;;;0.88;;
25553;SDS011;13446;50.926;5.332;2024-03-29T10:06:01;1.85;;;1.02;;
25553;SDS011;13446;50.926;5.332;2024-03-29T10:08:28;3.88;;;1.15;;
25553;SDS011;13446;50.926;5.332;2024-03-29T10:10:59;1.15;;;0.80;;
25553;SDS011;13446;50.926;5.332;2024-03-29T10:13:25;2.55;;;0.88;;
25553;SDS011;13446;50.926;5.332;2024-03-29T10:15:51;1.83;;;0.95;;
25553;SDS011;13446;50.926;5.332;2024-03-29T10:18:20;8.65;;;1.08;;
25553;SDS011;13446;50.926;5.332;2024-03-29T10:21:00;3.25;;;1.10;;
25553;SDS011;13446;50.926;5.332;2024-03-29T10:23:31;3.33;;;1.02;;
25553;SDS011;13446;50.926;5.332;2024-03-29T10:25:57;2.13;;;1.00;;
25553;SDS011;13446;50.926;5.332;2024-03-29T10:28:23;3.33;;;1.30;;
25553;SDS011;13446;50.926;5.332;2024-03-29T10:31:04;6.57;;;2.15;;
25553;SDS011;13446;50.926;5.332;2024-03-29T10:33:32;2.15;;;0.70;;
25553;SDS011;13446;50.926;5.332;2024-03-29T10:35:58;1.25;;;0.50;;
25553;SDS011;13446;50.926;5.332;2024-03-29T10:38:25;1.55;;;0.77;;
25553;SDS011;13446;50.926;5.332;2024-03-29T10:40:52;2.72;;;0.88;;
25553;SDS011;13446;50.926;5.332;2024-03-29T10:43:18;1.75;;;0.60;;
25553;SDS011;13446;50.926;5.332;2024-03-29T10:45:46;3.75;;;0.90;;
25553;SDS011;13446;50.926;5.332;2024-03-29T10:48:15;1.52;;;0.90;;
25553;SDS011;13446;50.926;5.332;2024-03-29T10:50:41;4.25;;;0.80;;
25553;SDS011;13446;50.926;5.332;2024-03-29T10:53:08;3.78;;;0.85;;
25553;SDS011;13446;50.926;5.332;2024-03-29T10:55:36;2.38;;;0.70;;
25553;SDS011;13446;50.926;5.332;2024-03-29T10:58:05;4.18;;;0.70;;
25553;SDS011;13446;50.926;5.332;2024-03-29T11:00:38;3.38;;;0.63;;
25553;SDS011;13446;50.926;5.332;2024-03-29T11:03:16;6.35;;;0.60;;
25553;SDS011;13446;50.926;5.332;2024-03-29T11:06:02;3.35;;;0.80;;
25553;SDS011;13446;50.926;5.332;2024-03-29T11:08:31;1.67;;;0.60;;
25553;SDS011;13446;50.926;5.332;2024-03-29T11:10:59;5.35;;;0.80;;
25553;SDS011;13446;50.926;5.332;2024-03-29T11:16:17;2.80;;;0.60;;
25553;SDS011;13446;50.926;5.332;2024-03-29T11:18:44;3.80;;;0.70;;
25553;SDS011;13446;50.926;5.332;2024-03-29T11:21:12;1.85;;;0.43;;
25553;SDS011;13446;50.926;5.332;2024-03-29T11:23:47;1.63;;;0.45;;
25553;SDS011;13446;50.926;5.332;2024-03-29T11:26:13;0.60;;;0.55;;
25553;SDS011;13446;50.926;5.332;2024-03-29T11:28:40;1.65;;;0.60;;
25553;SDS011;13446;50.926;5.332;2024-03-29T11:31:13;1.75;;;0.65;;
25553;SDS011;13446;50.926;5.332;2024-03-29T11:36:14;2.05;;;0.55;;
25553;SDS011;13446;50.926;5.332;2024-03-29T11:38:47;2.15;;;0.43;;
25553;SDS011;13446;50.926;5.332;2024-03-29T11:43:41;3.78;;;0.57;;
25553;SDS011;13446;50.926;5.332;2024-03-29T11:46:12;1.77;;;0.63;;
25553;SDS011;13446;50.926;5.332;2024-03-29T11:48:40;6.50;;;0.60;;
25553;SDS011;13446;50.926;5.332;2024-03-29T11:51:07;4.25;;;0.63;;
25553;SDS011;13446;50.926;5.332;2024-03-29T11:53:36;2.23;;;0.60;;
25553;SDS011;13446;50.926;5.332;2024-03-29T11:56:02;1.92;;;0.60;;
25553;SDS011;13446;50.926;5.332;2024-03-29T11:58:29;2.17;;;0.70;;
25553;SDS011;13446;50.926;5.332;2024-03-29T12:00:57;3.17;;;0.70;;
25553;SDS011;13446;50.926;5.332;2024-03-29T12:03:27;2.05;;;0.70;;
25553;SDS011;13446;50.926;5.332;2024-03-29T12:05:57;4.22;;;0.80;;
25553;SDS011;13446;50.926;5.332;2024-03-29T12:08:26;5.33;;;0.83;;
25553;SDS011;13446;50.926;5.332;2024-03-29T12:10:57;2.50;;;0.80;;
25553;SDS011;13446;50.926;5.332;2024-03-29T12:13:24;4.60;;;0.68;;
25553;SDS011;13446;50.926;5.332;2024-03-29T12:15:50;1.90;;;0.77;;
25553;SDS011;13446;50.926;5.332;2024-03-29T12:18:16;5.50;;;0.90;;
25553;SDS011;13446;50.926;5.332;2024-03-29T12:20:44;2.40;;;0.80;;
25553;SDS011;13446;50.926;5.332;2024-03-29T12:23:11;2.30;;;0.77;;
25553;SDS011;13446;50.926;5.332;2024-03-29T12:25:40;4.77;;;1.07;;
25553;SDS011;13446;50.926;5.332;2024-03-29T12:28:06;1.95;;;0.70;;
25553;SDS011;13446;50.926;5.332;2024-03-29T12:30:32;2.65;;;0.70;;
25553;SDS011;13446;50.926;5.332;2024-03-29T12:35:36;1.92;;;0.60;;
25553;SDS011;13446;50.926;5.332;2024-03-29T12:38:02;4.22;;;0.90;;
25553;SDS011;13446;50.926;5.332;2024-03-29T12:40:30;1.75;;;0.63;;
25553;SDS011;13446;50.926;5.332;2024-03-29T12:43:01;2.40;;;0.60;;
25553;SDS011;13446;50.926;5.332;2024-03-29T12:45:28;1.70;;;0.70;;
25553;SDS011;13446;50.926;5.332;2024-03-29T12:47:54;2.28;;;0.60;;
25553;SDS011;13446;50.926;5.332;2024-03-29T12:50:26;3.25;;;0.80;;
25553;SDS011;13446;50.926;5.332;2024-03-29T12:52:57;3.55;;;0.90;;
25553;SDS011;13446;50.926;5.332;2024-03-29T12:55:25;2.58;;;0.70;;
25553;SDS011;13446;50.926;5.332;2024-03-29T12:58:03;2.13;;;0.70;;
25553;SDS011;13446;50.926;5.332;2024-03-29T13:00:33;1.45;;;0.40;;
25553;SDS011;13446;50.926;5.332;2024-03-29T13:02:59;1.30;;;0.60;;
25553;SDS011;13446;50.926;5.332;2024-03-29T13:05:26;4.60;;;0.63;;
25553;SDS011;13446;50.926;5.332;2024-03-29T13:07:52;2.88;;;0.60;;
25553;SDS011;13446;50.926;5.332;2024-03-29T13:10:18;1.70;;;0.80;;
25553;SDS011;13446;50.926;5.332;2024-03-29T13:12:46;1.30;;;0.57;;
25553;SDS011;13446;50.926;5.332;2024-03-29T13:17:40;1.40;;;0.40;;
25553;SDS011;13446;50.926;5.332;2024-03-29T13:20:06;1.60;;;0.60;;
25553;SDS011;13446;50.926;5.332;2024-03-29T13:22:33;1.27;;;0.50;;
25553;SDS011;13446;50.926;5.332;2024-03-29T13:24:59;1.10;;;0.60;;
25553;SDS011;13446;50.926;5.332;2024-03-29T13:27:25;2.97;;;0.70;;
25553;SDS011;13446;50.926;5.332;2024-03-29T13:29:51;3.15;;;0.70;;
25553;SDS011;13446;50.926;5.332;2024-03-29T13:32:18;1.35;;;0.35;;
25553;SDS011;13446;50.926;5.332;2024-03-29T13:34:43;1.48;;;0.50;;
25553;SDS011;13446;50.926;5.332;2024-03-29T13:37:09;0.95;;;0.57;;
25553;SDS011;13446;50.926;5.332;2024-03-29T13:39:35;1.60;;;0.70;;
25553;SDS011;13446;50.926;5.332;2024-03-29T13:42:01;2.28;;;0.50;;
25553;SDS011;13446;50.926;5.332;2024-03-29T13:44:27;2.13;;;0.60;;
25553;SDS011;13446;50.926;5.332;2024-03-29T13:46:52;0.93;;;0.55;;
25553;SDS011;13446;50.926;5.332;2024-03-29T13:49:18;1.83;;;0.65;;
25553;SDS011;13446;50.926;5.332;2024-03-29T13:51:47;2.17;;;0.40;;
25553;SDS011;13446;50.926;5.332;2024-03-29T13:54:13;6.18;;;1.50;;
25553;SDS011;13446;50.926;5.332;2024-03-29T13:56:39;1.60;;;0.55;;
25553;SDS011;13446;50.926;5.332;2024-03-29T13:59:05;1.23;;;0.50;;
25553;SDS011;13446;50.926;5.332;2024-03-29T14:01:30;5.50;;;0.40;;
25553;SDS011;13446;50.926;5.332;2024-03-29T14:03:56;1.70;;;0.60;;
25553;SDS011;13446;50.926;5.332;2024-03-29T14:06:22;0.95;;;0.57;;
25553;SDS011;13446;50.926;5.332;2024-03-29T14:08:47;1.10;;;0.55;;
25553;SDS011;13446;50.926;5.332;2024-03-29T14:11:13;1.05;;;0.35;;
25553;SDS011;13446;50.926;5.332;2024-03-29T14:13:39;1.20;;;0.52;;
25553;SDS011;13446;50.926;5.332;2024-03-29T14:16:06;2.03;;;0.57;;
25553;SDS011;13446;50.926;5.332;2024-03-29T14:18:32;3.13;;;0.50;;
25553;SDS011;13446;50.926;5.332;2024-03-29T14:21:02;4.95;;;0.60;;
25553;SDS011;13446;50.926;5.332;2024-03-29T14:23:29;0.77;;;0.50;;
25553;SDS011;13446;50.926;5.332;2024-03-29T14:25:55;1.20;;;0.50;;
25553;SDS011;13446;50.926;5.332;2024-03-29T14:28:22;3.13;;;0.75;;
25553;SDS011;13446;50.926;5.332;2024-03-29T14:30:47;2.88;;;0.60;;
25553;SDS011;13446;50.926;5.332;2024-03-29T14:33:16;2.30;;;0.60;;
25553;SDS011;13446;50.926;5.332;2024-03-29T14:35:41;3.90;;;0.60;;
25553;SDS011;13446;50.926;5.332;2024-03-29T14:38:07;0.80;;;0.50;;
25553;SDS011;13446;50.926;5.332;2024-03-29T14:40:34;2.13;;;0.50;;
25553;SDS011;13446;50.926;5.332;2024-03-29T14:43:00;1.48;;;0.55;;
25553;SDS011;13446;50.926;5.332;2024-03-29T14:45:26;2.30;;;0.60;;
25553;SDS011;13446;50.926;5.332;2024-03-29T14:47:53;0.70;;;0.60;;
25553;SDS011;13446;50.926;5.332;2024-03-29T14:50:19;1.10;;;0.60;;
25553;SDS011;13446;50.926;5.332;2024-03-29T14:52:45;0.88;;;0.60;;
25553;SDS011;13446;50.926;5.332;2024-03-29T14:55:11;0.90;;;0.60;;
25553;SDS011;13446;50.926;5.332;2024-03-29T14:57:36;8.75;;;0.70;;
25553;SDS011;13446;50.926;5.332;2024-03-29T15:00:02;3.05;;;0.90;;
25553;SDS011;13446;50.926;5.332;2024-03-29T15:02:29;1.92;;;0.63;;
25553;SDS011;13446;50.926;5.332;2024-03-29T15:04:58;3.75;;;0.75;;
25553;SDS011;13446;50.926;5.332;2024-03-29T15:07:24;1.63;;;0.70;;
25553;SDS011;13446;50.926;5.332;2024-03-29T15:09:50;2.08;;;0.52;;
25553;SDS011;13446;50.926;5.332;2024-03-29T15:12:16;5.78;;;0.55;;
25553;SDS011;13446;50.926;5.332;2024-03-29T15:14:42;1.60;;;0.50;;
25553;SDS011;13446;50.926;5.332;2024-03-29T15:17:08;3.67;;;0.73;;
25553;SDS011;13446;50.926;5.332;2024-03-29T15:19:34;1.42;;;0.65;;